createdAt,value
2023-02-28T00:02:17.859Z,98953.02
2023-02-28T00:05:58.711Z,98957.54
2023-02-28T00:09:31.513Z,98961.74
2023-02-28T00:12:58.948Z,98963.46
2023-02-28T00:16:36.452Z,98967.38
2023-02-28T00:19:53.033Z,98963.45
2023-02-28T00:23:25.188Z,98969.09
2023-02-28T00:26:46.716Z,98969.89
2023-02-28T00:30:34.531Z,98969.10
2023-02-28T00:49:05.668Z,98956.86
2023-02-28T00:52:54.628Z,98958.87
2023-02-28T00:56:43.634Z,98955.89
2023-02-28T00:59:44.726Z,98946.25
2023-02-28T01:03:23.985Z,98938.75
2023-02-28T01:06:31.436Z,98935.08
2023-02-28T01:09:45.667Z,98934.75
2023-02-28T01:13:24.350Z,98934.52
2023-02-28T01:16:56.321Z,98937.71
2023-02-28T01:20:46.919Z,98929.59
2023-02-28T01:24:43.831Z,98932.02
2023-02-28T01:28:31.587Z,98934.66
2023-02-28T01:31:29.518Z,98940.04
2023-02-28T01:35:04.430Z,98934.33
2023-02-28T01:38:25.928Z,98939.19
2023-02-28T01:42:15.111Z,98932.86
2023-02-28T01:50:04.901Z,98921.93
2023-02-28T01:53:40.438Z,98918.79
2023-02-28T01:57:14.544Z,98919.13
2023-02-28T02:00:15.980Z,98921.30
2023-02-28T02:03:59.172Z,98919.39
2023-02-28T02:07:33.068Z,98918.53
2023-02-28T02:32:25.049Z,98915.52
2023-02-28T02:35:57.609Z,98914.52
2023-02-28T02:39:46.094Z,98910.99
2023-02-28T02:43:10.613Z,98911.10
2023-02-28T02:46:53.855Z,98907.13
2023-02-28T02:50:06.108Z,98912.84
2023-02-28T02:53:35.832Z,98911.19
2023-02-28T02:56:56.257Z,98920.43
2023-02-28T03:07:49.567Z,98917.85
2023-02-28T03:11:24.604Z,98926.95
2023-02-28T03:14:52.223Z,98920.95
2023-02-28T03:18:31.520Z,98922.46
2023-02-28T03:22:19.214Z,98935.38
2023-02-28T03:25:47.786Z,98935.64
2023-02-28T03:29:42.748Z,98940.80
2023-02-28T03:33:27.698Z,98938.64
2023-02-28T03:37:09.856Z,98939.10
2023-02-28T03:40:41.110Z,98939.23
2023-02-28T03:47:52.210Z,98946.98
2023-02-28T04:02:44.456Z,98950.70
2023-02-28T04:06:19.763Z,98951.19
2023-02-28T04:09:51.883Z,98952.75
2023-02-28T04:13:41.135Z,98956.02
2023-02-28T04:17:21.255Z,98952.29
2023-02-28T04:21:11.914Z,98946.53
2023-02-28T04:43:06.070Z,98953.29
2023-02-28T04:46:19.518Z,98954.16
2023-02-28T04:49:26.787Z,98956.89
2023-02-28T04:52:58.855Z,98953.79
2023-02-28T04:56:19.450Z,98951.09
2023-02-28T04:59:46.743Z,98951.77
2023-02-28T05:03:17.307Z,98945.92
2023-02-28T05:32:44.496Z,98965.77
2023-02-28T05:40:24.387Z,98974.80
2023-02-28T05:43:04.944Z,98977.27
2023-02-28T05:46:19.884Z,98982.73
2023-02-28T05:48:56.917Z,98990.88
2023-02-28T05:52:19.515Z,98988.96
2023-02-28T05:55:38.361Z,98999.59
2023-02-28T05:58:48.629Z,99006.60
2023-02-28T06:02:26.050Z,99008.80
2023-02-28T06:06:21.011Z,99008.73
2023-02-28T06:08:55.159Z,99009.50
2023-02-28T06:12:27.081Z,99012.94
2023-02-28T06:15:44.959Z,99017.70
2023-02-28T06:19:09.348Z,99023.45
2023-02-28T06:22:21.305Z,99023.23
2023-02-28T06:25:35.216Z,99023.10
2023-02-28T06:28:09.083Z,99026.84
2023-02-28T06:31:30.054Z,99025.73
2023-02-28T06:34:13.112Z,99026.79
2023-02-28T06:37:16.232Z,99028.48
2023-02-28T06:40:29.295Z,99026.73
2023-02-28T06:43:58.088Z,99028.67
2023-02-28T06:47:05.547Z,99030.50
2023-02-28T06:50:07.856Z,99029.27
2023-02-28T06:53:21.374Z,99032.32
2023-02-28T06:57:10.363Z,99032.57
2023-02-28T07:00:23.883Z,99032.84
2023-02-28T07:03:48.638Z,99032.85
2023-02-28T07:07:11.824Z,99037.33
2023-02-28T07:10:20.369Z,99041.73
2023-02-28T07:13:45.723Z,99042.45
2023-02-28T07:17:24.849Z,99041.25
2023-02-28T07:20:46.817Z,99045.44
2023-02-28T07:23:35.120Z,99047.27
2023-02-28T07:26:07.952Z,99046.17
2023-02-28T07:29:19.813Z,99049.02
2023-02-28T07:32:57.622Z,99047.80
2023-02-28T07:36:41.676Z,99059.73
2023-02-28T07:40:00.194Z,99063.75
2023-02-28T08:14:11.763Z,99051.90
2023-02-28T08:16:50.451Z,99053.17
2023-02-28T08:20:05.338Z,99052.14
2023-02-28T08:22:45.907Z,99049.24
2023-02-28T08:26:19.167Z,99050.13
2023-02-28T08:29:14.277Z,99054.98
2023-02-28T08:32:31.617Z,99054.77
2023-02-28T08:35:45.959Z,99056.31
2023-02-28T08:38:19.741Z,99057.44
2023-02-28T08:40:48.252Z,99059.48
2023-02-28T08:43:32.196Z,99060.48
2023-02-28T08:46:35.645Z,99059.23
2023-02-28T08:49:20.508Z,99061.23
2023-02-28T08:52:01.174Z,99057.53
2023-02-28T08:55:19.305Z,99056.02
2023-02-28T08:58:02.270Z,99054.71
2023-02-28T09:00:42.985Z,99049.92
2023-02-28T09:03:42.936Z,99051.21
2023-02-28T09:06:43.996Z,99052.55
2023-02-28T09:10:22.192Z,99054.39
2023-02-28T09:13:30.682Z,99055.52
2023-02-28T09:16:33.480Z,99054.21
2023-02-28T09:19:23.352Z,99055.66
2023-02-28T09:22:32.014Z,99057.00
2023-02-28T09:25:57.502Z,99055.39
2023-02-28T09:29:15.772Z,99061.96
2023-02-28T09:31:44.707Z,99060.20
2023-02-28T09:34:56.250Z,99060.90
2023-02-28T09:37:32.425Z,99060.08
2023-02-28T09:40:25.823Z,99055.45
2023-02-28T09:42:59.881Z,99056.60
2023-02-28T09:45:38.213Z,99055.71
2023-02-28T09:48:46.744Z,99059.55
2023-02-28T09:52:11.687Z,99063.64
2023-02-28T09:55:06.377Z,99063.12
2023-02-28T09:59:02.503Z,99060.98
2023-02-28T10:02:27.748Z,99063.64
2023-02-28T10:05:53.199Z,99060.55
2023-02-28T10:09:36.784Z,99060.91
2023-02-28T10:12:23.072Z,99063.54
2023-02-28T10:15:35.486Z,99061.56
2023-02-28T10:18:49.415Z,99067.86
2023-02-28T10:22:23.297Z,99064.89
2023-02-28T11:02:22.170Z,99026.63
2023-02-28T11:05:03.528Z,99017.58
2023-02-28T11:07:52.585Z,99013.45
2023-02-28T11:11:13.052Z,99011.65
2023-02-28T11:14:16.108Z,99012.46
2023-02-28T11:17:28.891Z,99013.58
2023-02-28T11:20:40.583Z,99002.16
2023-02-28T11:23:57.129Z,99000.94
2023-02-28T11:27:22.716Z,98994.23
2023-02-28T11:30:41.598Z,98988.95
2023-02-28T11:34:20.393Z,98988.29
2023-02-28T11:37:35.972Z,98989.96
2023-02-28T11:41:14.057Z,98988.52
2023-02-28T11:44:17.804Z,98983.08
2023-02-28T11:47:09.699Z,98980.95
2023-02-28T11:50:18.600Z,98980.73
2023-02-28T11:54:13.518Z,98980.88
2023-02-28T11:57:16.161Z,98982.98
2023-02-28T12:00:54.271Z,98985.25
2023-02-28T12:04:14.892Z,98983.65
2023-02-28T12:07:01.699Z,98976.91
2023-02-28T12:10:26.658Z,98976.13
2023-02-28T12:13:05.882Z,98969.75
2023-02-28T12:15:57.339Z,98965.70
2023-02-28T12:19:33.744Z,98963.74
2023-02-28T12:23:30.031Z,98960.53
2023-02-28T12:26:52.806Z,98961.30
2023-02-28T12:30:21.798Z,98959.54
2023-02-28T12:33:09.986Z,98960.88
2023-02-28T12:36:09.232Z,98953.44
2023-02-28T12:39:14.017Z,98954.88
2023-02-28T12:42:30.445Z,98951.30
2023-02-28T12:46:21.355Z,98958.29
2023-02-28T12:49:12.333Z,98960.84
2023-02-28T12:52:07.371Z,98956.58
2023-02-28T12:55:07.004Z,98958.12
2023-02-28T12:58:27.100Z,98956.17
2023-02-28T13:01:48.012Z,98956.20
2023-02-28T13:05:33.664Z,98950.17
2023-02-28T13:08:46.994Z,98947.29
2023-02-28T13:12:25.395Z,98949.96
2023-02-28T13:15:30.574Z,98946.29
2023-02-28T13:18:43.788Z,98941.80
2023-02-28T13:21:44.920Z,98939.58
2023-02-28T13:25:05.033Z,98939.98
2023-02-28T13:28:05.122Z,98938.67
2023-02-28T13:31:19.527Z,98934.09
2023-02-28T13:34:55.255Z,98929.81
2023-02-28T13:38:10.761Z,98927.61
2023-02-28T13:40:58.990Z,98931.73
2023-02-28T13:44:29.890Z,98928.77
2023-02-28T13:47:29.445Z,98925.83
2023-02-28T13:50:43.079Z,98924.39
2023-02-28T13:54:15.837Z,98923.13
2023-02-28T13:57:52.775Z,98922.67
2023-02-28T14:01:26.486Z,98916.73
2023-02-28T14:31:00.548Z,98907.27
2023-02-28T14:34:12.601Z,98906.12
2023-02-28T14:37:51.982Z,98905.61
2023-02-28T14:40:54.941Z,98905.27
2023-02-28T14:44:37.367Z,98906.67
2023-02-28T14:47:49.677Z,98909.36
2023-02-28T14:51:00.463Z,98912.39
2023-02-28T14:54:34.746Z,98917.61
2023-02-28T14:57:55.319Z,98914.23
2023-02-28T15:00:48.304Z,98916.14
2023-02-28T15:04:01.526Z,98916.30
2023-02-28T15:07:30.389Z,98918.70
2023-02-28T15:10:38.508Z,98923.31
2023-02-28T15:13:59.900Z,98918.24
2023-02-28T15:17:21.412Z,98914.16
2023-02-28T15:20:50.847Z,98917.78
2023-02-28T15:24:35.498Z,98918.13
2023-02-28T15:27:46.181Z,98918.38
2023-02-28T15:30:55.092Z,98918.58
2023-02-28T15:34:33.672Z,98910.27
2023-02-28T15:38:07.146Z,98907.94
2023-02-28T15:42:02.667Z,98913.20
2023-02-28T15:44:38.547Z,98913.38
2023-02-28T15:47:28.088Z,98912.48
2023-02-28T15:50:19.507Z,98918.14
2023-02-28T15:52:51.413Z,98912.97
2023-02-28T15:56:31.327Z,98918.70
2023-02-28T15:59:43.011Z,98923.48
2023-02-28T16:02:16.976Z,98927.10
2023-02-28T16:05:29.010Z,98929.93
2023-02-28T16:08:20.054Z,98930.44
2023-02-28T16:11:31.944Z,98933.39
2023-02-28T16:15:03.475Z,98928.98
2023-02-28T16:18:35.642Z,98929.40
2023-02-28T16:21:06.772Z,98926.83
2023-02-28T16:24:55.985Z,98924.00
2023-02-28T16:28:01.418Z,98932.80
2023-02-28T16:31:26.231Z,98932.52
2023-02-28T16:34:00.445Z,98936.98
2023-02-28T16:37:29.720Z,98936.45
2023-02-28T16:40:37.157Z,98936.48
2023-02-28T16:44:29.596Z,98935.20
2023-02-28T16:48:18.510Z,98939.63
2023-02-28T16:51:56.288Z,98947.85
2023-02-28T16:55:08.145Z,98953.73
2023-02-28T16:58:43.596Z,98955.79
2023-02-28T17:18:05.580Z,98964.80
2023-02-28T17:21:56.118Z,98960.70
2023-02-28T17:40:47.067Z,98962.42
2023-02-28T17:44:20.827Z,98965.24
2023-02-28T17:48:09.975Z,98963.67
2023-02-28T17:51:35.350Z,98968.52
2023-02-28T17:55:04.429Z,98969.11
2023-02-28T17:58:44.707Z,98967.13
2023-02-28T18:01:39.095Z,98969.03
2023-02-28T18:05:17.286Z,98966.36
2023-02-28T18:08:46.897Z,98968.23
2023-02-28T18:12:25.126Z,98967.44
2023-02-28T18:15:39.926Z,98968.67
2023-02-28T18:19:20.400Z,98969.06
2023-02-28T18:22:30.634Z,98967.73
2023-02-28T18:25:45.245Z,98964.48
2023-02-28T18:29:36.619Z,98962.02
2023-02-28T18:48:02.326Z,98970.56
2023-02-28T18:50:43.161Z,98965.87
2023-02-28T18:53:32.923Z,98960.40
2023-02-28T18:56:27.616Z,98958.32
2023-02-28T18:59:18.154Z,98954.89
2023-02-28T19:01:49.162Z,98950.02
2023-02-28T19:04:40.018Z,98953.56
2023-02-28T19:07:40.305Z,98953.21
2023-02-28T19:10:25.006Z,98956.71
2023-02-28T19:13:20.235Z,98960.89
2023-02-28T19:15:56.961Z,98957.36
2023-02-28T19:19:13.672Z,98963.33
2023-02-28T19:22:24.274Z,98962.85
2023-02-28T19:25:14.509Z,98960.98
2023-02-28T19:27:47.759Z,98964.06
2023-02-28T19:30:28.501Z,98959.97
2023-02-28T19:33:44.845Z,98961.05
2023-02-28T19:37:20.416Z,98959.91
2023-02-28T19:40:05.044Z,98960.39
2023-02-28T19:43:35.867Z,98959.32
2023-02-28T19:46:54.057Z,98956.43
2023-02-28T19:49:55.407Z,98960.46
2023-02-28T19:53:12.187Z,98965.73
2023-02-28T19:56:05.923Z,98958.64
2023-02-28T19:58:56.810Z,98959.50
2023-02-28T20:01:48.305Z,98960.45
2023-02-28T20:05:04.382Z,98958.08
2023-02-28T20:07:55.713Z,98951.60
2023-02-28T20:10:49.862Z,98959.83
2023-02-28T20:13:38.994Z,98959.08
2023-02-28T20:16:47.464Z,98960.88
2023-02-28T20:20:05.168Z,98958.77
2023-02-28T20:23:30.788Z,98958.19
2023-02-28T20:26:36.825Z,98951.81
2023-02-28T20:29:36.483Z,98948.35
2023-02-28T20:32:54.803Z,98947.33
2023-02-28T20:36:42.527Z,98947.02
2023-02-28T20:40:06.370Z,98943.01
2023-02-28T20:43:45.446Z,98940.60
2023-02-28T20:47:05.678Z,98942.38
2023-02-28T20:50:46.968Z,98943.09
2023-02-28T20:54:05.595Z,98943.81
2023-02-28T20:57:47.324Z,98944.66
2023-02-28T21:01:40.316Z,98945.35
2023-02-28T21:05:27.115Z,98949.99
2023-02-28T21:09:17.609Z,98950.08
2023-02-28T21:24:29.205Z,98948.09
2023-02-28T21:28:03.571Z,98945.20
2023-02-28T21:31:33.932Z,98944.77
2023-02-28T21:35:12.886Z,98942.66
2023-02-28T21:38:53.638Z,98939.14
2023-02-28T21:42:41.910Z,98946.17
2023-02-28T21:46:17.373Z,98946.00
2023-02-28T21:54:11.898Z,98946.59
2023-02-28T21:57:59.403Z,98948.80
2023-02-28T22:01:47.428Z,98952.81
2023-02-28T22:05:28.448Z,98954.51
2023-02-28T22:09:16.066Z,98959.77
2023-02-28T22:12:55.659Z,98968.93
2023-02-28T22:16:54.324Z,98965.61
2023-02-28T22:20:23.086Z,98960.85
2023-02-28T22:23:43.137Z,98955.78
2023-02-28T22:27:20.478Z,98952.88
2023-02-28T22:31:04.878Z,98952.36
2023-02-28T22:34:47.003Z,98951.67
2023-02-28T22:49:52.412Z,98960.05
2023-02-28T22:53:40.048Z,98963.44
2023-02-28T22:57:00.402Z,98964.63
2023-02-28T23:00:48.614Z,98964.32
2023-02-28T23:04:07.673Z,98968.52
2023-02-28T23:07:48.221Z,98967.96
2023-02-28T23:11:24.699Z,98968.65
2023-02-28T23:14:42.861Z,98970.33
2023-02-28T23:18:11.545Z,98974.62
2023-02-28T23:21:59.817Z,98976.61
2023-02-28T23:25:38.883Z,98974.00
2023-02-28T23:29:21.731Z,98979.58
2023-02-28T23:40:37.995Z,98990.27
2023-02-28T23:44:26.984Z,98993.61
2023-02-28T23:48:16.024Z,98994.91
2023-02-28T23:51:50.941Z,98995.26
2023-02-28T23:55:38.624Z,98993.47
2023-02-28T23:59:09.839Z,98990.70
